sensor_id;sensor_type;location;lat;lon;timestamp;temperature;humidity
3360;DHT22;1693;49.602;11.046;2023-03-01T00:00:06;-0.90;99.90
3360;DHT22;1693;49.602;11.046;2023-03-01T00:02:34;-0.90;99.90
3360;DHT22;1693;49.602;11.046;2023-03-01T00:05:01;-0.90;99.90
3360;DHT22;1693;49.602;11.046;2023-03-01T00:07:30;-0.90;99.90
3360;DHT22;1693;49.602;11.046;2023-03-01T00:09:57;-0.90;99.90
3360;DHT22;1693;49.602;11.046;2023-03-01T00:12:24;-0.90;99.90
3360;DHT22;1693;49.602;11.046;2023-03-01T00:14:51;-0.90;99.90
3360;DHT22;1693;49.602;11.046;2023-03-01T00:17:17;-0.80;99.90
3360;DHT22;1693;49.602;11.046;2023-03-01T00:19:44;-0.90;99.90
3360;DHT22;1693;49.602;11.046;2023-03-01T00:22:11;-0.90;99.90
3360;DHT22;1693;49.602;11.046;2023-03-01T00:24:40;-0.90;99.90
3360;DHT22;1693;49.602;11.046;2023-03-01T00:27:07;-0.90;99.90
3360;DHT22;1693;49.602;11.046;2023-03-01T00:29:34;-0.90;99.90
3360;DHT22;1693;49.602;11.046;2023-03-01T00:32:01;-0.90;99.90
3360;DHT22;1693;49.602;11.046;2023-03-01T00:34:28;-0.90;99.90
3360;DHT22;1693;49.602;11.046;2023-03-01T00:36:55;-0.90;99.90
3360;DHT22;1693;49.602;11.046;2023-03-01T00:39:31;-0.90;99.90
3360;DHT22;1693;49.602;11.046;2023-03-01T00:42:00;-0.90;99.90
3360;DHT22;1693;49.602;11.046;2023-03-01T00:44:27;-0.90;99.90
3360;DHT22;1693;49.602;11.046;2023-03-01T00:46:54;-0.90;99.90
3360;DHT22;1693;49.602;11.046;2023-03-01T00:49:21;-1.00;99.90
3360;DHT22;1693;49.602;11.046;2023-03-01T00:51:49;-0.90;99.90
3360;DHT22;1693;49.602;11.046;2023-03-01T00:54:16;-0.90;99.90
3360;DHT22;1693;49.602;11.046;2023-03-01T00:56:43;-0.90;99.90
3360;DHT22;1693;49.602;11.046;2023-03-01T00:59:12;-0.90;99.90
3360;DHT22;1693;49.602;11.046;2023-03-01T01:01:39;-0.90;99.90
3360;DHT22;1693;49.602;11.046;2023-03-01T01:04:08;-1.00;99.90
3360;DHT22;1693;49.602;11.046;2023-03-01T01:06:38;-1.00;99.90
3360;DHT22;1693;49.602;11.046;2023-03-01T01:09:06;-1.00;99.90
3360;DHT22;1693;49.602;11.046;2023-03-01T01:11:34;-1.00;99.90
3360;DHT22;1693;49.602;11.046;2023-03-01T01:14:02;-1.10;99.90
3360;DHT22;1693;49.602;11.046;2023-03-01T01:16:30;-1.10;99.90
3360;DHT22;1693;49.602;11.046;2023-03-01T01:18:59;-1.10;99.90
3360;DHT22;1693;49.602;11.046;2023-03-01T01:21:26;-1.00;99.90
3360;DHT22;1693;49.602;11.046;2023-03-01T01:23:55;-1.00;99.90
3360;DHT22;1693;49.602;11.046;2023-03-01T01:26:25;-1.00;99.90
3360;DHT22;1693;49.602;11.046;2023-03-01T01:28:54;-1.10;99.90
3360;DHT22;1693;49.602;11.046;2023-03-01T01:31:23;-1.10;99.90
3360;DHT22;1693;49.602;11.046;2023-03-01T01:33:54;-1.00;99.90
3360;DHT22;1693;49.602;11.046;2023-03-01T01:36:23;-1.10;99.90
3360;DHT22;1693;49.602;11.046;2023-03-01T01:38:51;-1.10;99.90
3360;DHT22;1693;49.602;11.046;2023-03-01T01:41:20;-1.10;99.90
3360;DHT22;1693;49.602;11.046;2023-03-01T01:44:08;-1.20;99.90
3360;DHT22;1693;49.602;11.046;2023-03-01T01:46:39;-1.20;99.90
3360;DHT22;1693;49.602;11.046;2023-03-01T01:49:16;-1.30;99.90
3360;DHT22;1693;49.602;11.046;2023-03-01T01:51:47;-1.30;99.90
3360;DHT22;1693;49.602;11.046;2023-03-01T01:54:19;-1.40;99.90
3360;DHT22;1693;49.602;11.046;2023-03-01T01:56:53;-1.40;99.90
3360;DHT22;1693;49.602;11.046;2023-03-01T01:59:23;-1.40;99.90
3360;DHT22;1693;49.602;11.046;2023-03-01T02:01:55;-1.30;99.90
3360;DHT22;1693;49.602;11.046;2023-03-01T02:04:24;-1.30;99.90
3360;DHT22;1693;49.602;11.046;2023-03-01T02:06:57;-1.30;99.90
3360;DHT22;1693;49.602;11.046;2023-03-01T02:09:27;-1.30;99.90
3360;DHT22;1693;49.602;11.046;2023-03-01T02:11:55;-1.30;99.90
3360;DHT22;1693;49.602;11.046;2023-03-01T02:14:22;-1.30;99.90
3360;DHT22;1693;49.602;11.046;2023-03-01T02:16:51;-1.30;99.90
3360;DHT22;1693;49.602;11.046;2023-03-01T02:19:27;-1.30;99.90
3360;DHT22;1693;49.602;11.046;2023-03-01T02:22:02;-1.30;99.90
3360;DHT22;1693;49.602;11.046;2023-03-01T02:24:40;-1.30;99.90
3360;DHT22;1693;49.602;11.046;2023-03-01T02:27:12;-1.30;99.90
3360;DHT22;1693;49.602;11.046;2023-03-01T02:29:41;-1.30;99.90
3360;DHT22;1693;49.602;11.046;2023-03-01T02:32:11;-1.30;99.90
3360;DHT22;1693;49.602;11.046;2023-03-01T02:34:38;-1.30;99.90
3360;DHT22;1693;49.602;11.046;2023-03-01T02:37:10;-1.40;99.90
3360;DHT22;1693;49.602;11.046;2023-03-01T02:39:43;-1.30;99.90
3360;DHT22;1693;49.602;11.046;2023-03-01T02:42:16;-1.30;99.90
3360;DHT22;1693;49.602;11.046;2023-03-01T02:44:47;-1.30;99.90
3360;DHT22;1693;49.602;11.046;2023-03-01T02:47:16;-1.40;99.90
3360;DHT22;1693;49.602;11.046;2023-03-01T02:49:45;-1.30;99.90
3360;DHT22;1693;49.602;11.046;2023-03-01T02:52:34;-1.40;99.90
3360;DHT22;1693;49.602;11.046;2023-03-01T02:55:07;-1.50;99.90
3360;DHT22;1693;49.602;11.046;2023-03-01T02:57:39;-1.60;99.90
3360;DHT22;1693;49.602;11.046;2023-03-01T03:00:14;-1.60;99.90
3360;DHT22;1693;49.602;11.046;2023-03-01T03:02:46;-1.70;99.90
3360;DHT22;1693;49.602;11.046;2023-03-01T03:05:18;-1.80;99.90
3360;DHT22;1693;49.602;11.046;2023-03-01T03:07:47;-1.90;99.90
3360;DHT22;1693;49.602;11.046;2023-03-01T03:10:18;-1.90;99.90
3360;DHT22;1693;49.602;11.046;2023-03-01T03:12:49;-1.80;99.90
3360;DHT22;1693;49.602;11.046;2023-03-01T03:15:20;-1.90;99.90
3360;DHT22;1693;49.602;11.046;2023-03-01T03:17:50;-1.90;99.90
3360;DHT22;1693;49.602;11.046;2023-03-01T03:20:20;-2.00;99.90
3360;DHT22;1693;49.602;11.046;2023-03-01T03:22:50;-2.00;99.90
3360;DHT22;1693;49.602;11.046;2023-03-01T03:25:19;-2.00;99.90
3360;DHT22;1693;49.602;11.046;2023-03-01T03:27:48;-2.00;99.90
3360;DHT22;1693;49.602;11.046;2023-03-01T03:30:20;-2.10;99.90
3360;DHT22;1693;49.602;11.046;2023-03-01T03:32:48;-2.10;99.90
3360;DHT22;1693;49.602;11.046;2023-03-01T03:35:21;-2.10;99.90
3360;DHT22;1693;49.602;11.046;2023-03-01T03:37:51;-2.10;99.90
3360;DHT22;1693;49.602;11.046;2023-03-01T03:40:37;-2.00;99.90
3360;DHT22;1693;49.602;11.046;2023-03-01T03:43:05;-2.10;99.90
3360;DHT22;1693;49.602;11.046;2023-03-01T03:45:34;-2.10;99.90
3360;DHT22;1693;49.602;11.046;2023-03-01T03:48:05;-2.10;99.90
3360;DHT22;1693;49.602;11.046;2023-03-01T03:50:33;-2.20;99.90
3360;DHT22;1693;49.602;11.046;2023-03-01T03:53:03;-2.20;99.90
3360;DHT22;1693;49.602;11.046;2023-03-01T03:55:30;-2.10;99.90
3360;DHT22;1693;49.602;11.046;2023-03-01T03:58:00;-2.20;99.90
3360;DHT22;1693;49.602;11.046;2023-03-01T04:00:39;-2.10;99.90
3360;DHT22;1693;49.602;11.046;2023-03-01T04:03:11;-2.20;99.90
3360;DHT22;1693;49.602;11.046;2023-03-01T04:05:40;-2.10;99.90
3360;DHT22;1693;49.602;11.046;2023-03-01T04:08:12;-2.10;99.90
3360;DHT22;1693;49.602;11.046;2023-03-01T04:10:40;-2.20;99.90
3360;DHT22;1693;49.602;11.046;2023-03-01T04:13:12;-2.10;99.90
3360;DHT22;1693;49.602;11.046;2023-03-01T04:15:43;-2.10;99.90
3360;DHT22;1693;49.602;11.046;2023-03-01T04:18:12;-2.10;99.90
3360;DHT22;1693;49.602;11.046;2023-03-01T04:20:42;-2.20;99.90
3360;DHT22;1693;49.602;11.046;2023-03-01T04:23:12;-2.20;99.90
3360;DHT22;1693;49.602;11.046;2023-03-01T04:25:46;-2.30;99.90
3360;DHT22;1693;49.602;11.046;2023-03-01T04:28:19;-2.40;99.90
3360;DHT22;1693;49.602;11.046;2023-03-01T04:30:51;-2.50;99.90
3360;DHT22;1693;49.602;11.046;2023-03-01T04:33:21;-2.50;99.90
3360;DHT22;1693;49.602;11.046;2023-03-01T04:35:49;-2.50;99.90
3360;DHT22;1693;49.602;11.046;2023-03-01T04:38:17;-2.50;99.90
3360;DHT22;1693;49.602;11.046;2023-03-01T04:40:45;-2.50;99.90
3360;DHT22;1693;49.602;11.046;2023-03-01T04:43:13;-2.50;99.90
3360;DHT22;1693;49.602;11.046;2023-03-01T04:45:42;-2.40;99.90
3360;DHT22;1693;49.602;11.046;2023-03-01T04:48:11;-2.40;99.90
3360;DHT22;1693;49.602;11.046;2023-03-01T04:50:38;-2.40;99.90
3360;DHT22;1693;49.602;11.046;2023-03-01T04:53:05;-2.40;99.90
3360;DHT22;1693;49.602;11.046;2023-03-01T04:55:33;-2.40;99.90
3360;DHT22;1693;49.602;11.046;2023-03-01T04:58:02;-2.40;99.90
3360;DHT22;1693;49.602;11.046;2023-03-01T05:00:30;-2.40;99.90
3360;DHT22;1693;49.602;11.046;2023-03-01T05:03:00;-2.40;99.90
3360;DHT22;1693;49.602;11.046;2023-03-01T05:05:32;-2.50;99.90
3360;DHT22;1693;49.602;11.046;2023-03-01T05:08:04;-2.50;99.90
3360;DHT22;1693;49.602;11.046;2023-03-01T05:10:34;-2.50;99.90
3360;DHT22;1693;49.602;11.046;2023-03-01T05:13:03;-2.60;99.90
3360;DHT22;1693;49.602;11.046;2023-03-01T05:15:31;-2.60;99.90
3360;DHT22;1693;49.602;11.046;2023-03-01T05:17:59;-2.60;99.90
3360;DHT22;1693;49.602;11.046;2023-03-01T05:20:30;-2.60;99.90
3360;DHT22;1693;49.602;11.046;2023-03-01T05:22:59;-2.70;99.90
3360;DHT22;1693;49.602;11.046;2023-03-01T05:25:32;-2.70;99.90
3360;DHT22;1693;49.602;11.046;2023-03-01T05:28:01;-2.80;99.90
3360;DHT22;1693;49.602;11.046;2023-03-01T05:30:30;-2.70;99.90
3360;DHT22;1693;49.602;11.046;2023-03-01T05:32:59;-2.80;99.90
3360;DHT22;1693;49.602;11.046;2023-03-01T05:35:28;-2.80;99.90
3360;DHT22;1693;49.602;11.046;2023-03-01T05:37:58;-2.80;99.90
3360;DHT22;1693;49.602;11.046;2023-03-01T05:40:27;-2.80;99.90
3360;DHT22;1693;49.602;11.046;2023-03-01T05:42:56;-2.80;99.90
3360;DHT22;1693;49.602;11.046;2023-03-01T05:45:26;-2.70;99.90
3360;DHT22;1693;49.602;11.046;2023-03-01T05:47:54;-2.60;99.90
3360;DHT22;1693;49.602;11.046;2023-03-01T05:50:25;-2.60;99.90
3360;DHT22;1693;49.602;11.046;2023-03-01T05:52:59;-2.60;99.90
3360;DHT22;1693;49.602;11.046;2023-03-01T05:55:28;-2.60;99.90
3360;DHT22;1693;49.602;11.046;2023-03-01T05:57:58;-2.60;99.90
3360;DHT22;1693;49.602;11.046;2023-03-01T06:00:27;-2.50;99.90
3360;DHT22;1693;49.602;11.046;2023-03-01T06:02:56;-2.60;99.90
3360;DHT22;1693;49.602;11.046;2023-03-01T06:05:25;-2.50;99.90
3360;DHT22;1693;49.602;11.046;2023-03-01T06:07:54;-2.60;99.90
3360;DHT22;1693;49.602;11.046;2023-03-01T06:10:23;-2.60;99.90
3360;DHT22;1693;49.602;11.046;2023-03-01T06:12:52;-2.60;99.90
3360;DHT22;1693;49.602;11.046;2023-03-01T06:15:20;-2.50;99.90
3360;DHT22;1693;49.602;11.046;2023-03-01T06:17:49;-2.40;99.90
3360;DHT22;1693;49.602;11.046;2023-03-01T06:20:41;-2.40;99.90
3360;DHT22;1693;49.602;11.046;2023-03-01T06:23:25;-2.40;99.90
3360;DHT22;1693;49.602;11.046;2023-03-01T06:25:54;-2.30;99.90
3360;DHT22;1693;49.602;11.046;2023-03-01T06:28:21;-2.30;99.90
3360;DHT22;1693;49.602;11.046;2023-03-01T06:30:49;-2.30;99.90
3360;DHT22;1693;49.602;11.046;2023-03-01T06:33:17;-2.10;99.90
3360;DHT22;1693;49.602;11.046;2023-03-01T06:35:45;-2.10;99.90
3360;DHT22;1693;49.602;11.046;2023-03-01T06:38:12;-2.00;99.90
3360;DHT22;1693;49.602;11.046;2023-03-01T06:40:42;-2.00;99.90
3360;DHT22;1693;49.602;11.046;2023-03-01T06:43:11;-1.90;99.90
3360;DHT22;1693;49.602;11.046;2023-03-01T06:45:38;-1.80;99.90
3360;DHT22;1693;49.602;11.046;2023-03-01T06:48:07;-1.70;99.90
3360;DHT22;1693;49.602;11.046;2023-03-01T06:50:36;-1.50;99.90
3360;DHT22;1693;49.602;11.046;2023-03-01T06:53:06;-1.40;99.90
3360;DHT22;1693;49.602;11.046;2023-03-01T06:55:36;-1.30;99.90
3360;DHT22;1693;49.602;11.046;2023-03-01T06:58:04;-1.30;99.90
3360;DHT22;1693;49.602;11.046;2023-03-01T07:00:37;-1.10;99.90
3360;DHT22;1693;49.602;11.046;2023-03-01T07:03:10;-0.90;99.90
3360;DHT22;1693;49.602;11.046;2023-03-01T07:05:42;-0.90;99.90
3360;DHT22;1693;49.602;11.046;2023-03-01T07:08:30;-0.70;99.90
3360;DHT22;1693;49.602;11.046;2023-03-01T07:11:13;-0.50;99.90
3360;DHT22;1693;49.602;11.046;2023-03-01T07:13:40;-0.30;99.90
3360;DHT22;1693;49.602;11.046;2023-03-01T07:16:08;-0.10;99.90
3360;DHT22;1693;49.602;11.046;2023-03-01T07:18:36;-0.10;99.90
3360;DHT22;1693;49.602;11.046;2023-03-01T07:21:11;0.00;99.90
3360;DHT22;1693;49.602;11.046;2023-03-01T07:23:40;0.20;99.90
3360;DHT22;1693;49.602;11.046;2023-03-01T07:26:08;0.30;99.90
3360;DHT22;1693;49.602;11.046;2023-03-01T07:28:35;0.30;99.90
3360;DHT22;1693;49.602;11.046;2023-03-01T07:31:05;0.40;99.90
3360;DHT22;1693;49.602;11.046;2023-03-01T07:33:33;0.60;99.90
3360;DHT22;1693;49.602;11.046;2023-03-01T07:36:03;0.60;99.90
3360;DHT22;1693;49.602;11.046;2023-03-01T07:38:30;0.80;99.90
3360;DHT22;1693;49.602;11.046;2023-03-01T07:40:58;0.80;99.90
3360;DHT22;1693;49.602;11.046;2023-03-01T07:43:25;1.00;99.90
3360;DHT22;1693;49.602;11.046;2023-03-01T07:45:53;1.10;99.90
3360;DHT22;1693;49.602;11.046;2023-03-01T07:48:22;1.30;99.90
3360;DHT22;1693;49.602;11.046;2023-03-01T07:51:18;1.20;99.90
3360;DHT22;1693;49.602;11.046;2023-03-01T07:53:46;1.10;99.90
3360;DHT22;1693;49.602;11.046;2023-03-01T07:56:14;1.30;99.90
3360;DHT22;1693;49.602;11.046;2023-03-01T07:58:44;1.30;99.90
3360;DHT22;1693;49.602;11.046;2023-03-01T08:01:12;1.40;99.90
3360;DHT22;1693;49.602;11.046;2023-03-01T08:03:40;1.50;99.90
3360;DHT22;1693;49.602;11.046;2023-03-01T08:06:10;1.60;99.90
3360;DHT22;1693;49.602;11.046;2023-03-01T08:08:37;1.60;99.90
3360;DHT22;1693;49.602;11.046;2023-03-01T08:11:06;1.60;99.90
3360;DHT22;1693;49.602;11.046;2023-03-01T08:13:33;1.80;99.90
3360;DHT22;1693;49.602;11.046;2023-03-01T08:16:01;1.80;99.90
3360;DHT22;1693;49.602;11.046;2023-03-01T08:18:29;1.90;99.90
3360;DHT22;1693;49.602;11.046;2023-03-01T08:21:00;2.00;99.90
3360;DHT22;1693;49.602;11.046;2023-03-01T08:23:29;2.00;99.90
3360;DHT22;1693;49.602;11.046;2023-03-01T08:26:04;2.20;99.90
3360;DHT22;1693;49.602;11.046;2023-03-01T08:28:31;2.40;99.90
3360;DHT22;1693;49.602;11.046;2023-03-01T08:30:58;2.40;99.90
3360;DHT22;1693;49.602;11.046;2023-03-01T08:33:26;2.30;99.90
3360;DHT22;1693;49.602;11.046;2023-03-01T08:36:02;2.50;99.90
3360;DHT22;1693;49.602;11.046;2023-03-01T08:38:30;2.60;99.90
3360;DHT22;1693;49.602;11.046;2023-03-01T08:41:00;2.70;99.90
3360;DHT22;1693;49.602;11.046;2023-03-01T08:43:27;2.70;99.90
3360;DHT22;1693;49.602;11.046;2023-03-01T08:45:54;2.90;99.90
3360;DHT22;1693;49.602;11.046;2023-03-01T08:48:21;2.80;99.90
3360;DHT22;1693;49.602;11.046;2023-03-01T08:50:48;2.70;99.90
3360;DHT22;1693;49.602;11.046;2023-03-01T08:53:15;2.80;99.90
3360;DHT22;1693;49.602;11.046;2023-03-01T08:55:43;2.80;99.90
3360;DHT22;1693;49.602;11.046;2023-03-01T08:58:11;2.80;99.90
3360;DHT22;1693;49.602;11.046;2023-03-01T09:00:38;2.90;99.90
3360;DHT22;1693;49.602;11.046;2023-03-01T09:03:06;3.00;99.90
3360;DHT22;1693;49.602;11.046;2023-03-01T09:05:36;3.20;99.90
3360;DHT22;1693;49.602;11.046;2023-03-01T09:08:09;3.40;99.90
3360;DHT22;1693;49.602;11.046;2023-03-01T09:10:37;3.60;99.90
3360;DHT22;1693;49.602;11.046;2023-03-01T09:13:06;3.70;99.90
3360;DHT22;1693;49.602;11.046;2023-03-01T09:15:33;3.60;99.90
3360;DHT22;1693;49.602;11.046;2023-03-01T09:18:00;3.70;99.90
3360;DHT22;1693;49.602;11.046;2023-03-01T09:20:27;3.70;99.90
3360;DHT22;1693;49.602;11.046;2023-03-01T09:22:54;3.70;99.90
3360;DHT22;1693;49.602;11.046;2023-03-01T09:25:22;3.80;99.90
3360;DHT22;1693;49.602;11.046;2023-03-01T09:27:50;3.90;99.90
3360;DHT22;1693;49.602;11.046;2023-03-01T09:30:20;4.00;99.90
3360;DHT22;1693;49.602;11.046;2023-03-01T09:32:47;4.10;99.90
3360;DHT22;1693;49.602;11.046;2023-03-01T09:35:15;4.00;99.90
3360;DHT22;1693;49.602;11.046;2023-03-01T09:37:42;4.20;99.90
3360;DHT22;1693;49.602;11.046;2023-03-01T09:40:14;4.30;99.90
3360;DHT22;1693;49.602;11.046;2023-03-01T09:42:48;4.40;99.20
3360;DHT22;1693;49.602;11.046;2023-03-01T09:45:27;4.30;99.00
3360;DHT22;1693;49.602;11.046;2023-03-01T09:47:56;4.40;98.70
3360;DHT22;1693;49.602;11.046;2023-03-01T09:50:26;4.60;99.30
3360;DHT22;1693;49.602;11.046;2023-03-01T09:53:00;4.80;98.80
3360;DHT22;1693;49.602;11.046;2023-03-01T09:55:31;4.90;97.50
3360;DHT22;1693;49.602;11.046;2023-03-01T09:58:04;5.00;97.30
3360;DHT22;1693;49.602;11.046;2023-03-01T10:00:39;5.00;96.30
3360;DHT22;1693;49.602;11.046;2023-03-01T10:03:14;5.10;95.80
3360;DHT22;1693;49.602;11.046;2023-03-01T10:06:04;5.30;95.60
3360;DHT22;1693;49.602;11.046;2023-03-01T10:08:39;5.40;94.70
3360;DHT22;1693;49.602;11.046;2023-03-01T10:11:20;5.50;94.50
3360;DHT22;1693;49.602;11.046;2023-03-01T10:13:54;5.70;93.80
3360;DHT22;1693;49.602;11.046;2023-03-01T10:16:27;6.00;93.90
3360;DHT22;1693;49.602;11.046;2023-03-01T10:18:59;6.10;93.50
3360;DHT22;1693;49.602;11.046;2023-03-01T10:21:27;6.40;93.60
3360;DHT22;1693;49.602;11.046;2023-03-01T10:23:56;6.20;92.50
3360;DHT22;1693;49.602;11.046;2023-03-01T10:26:46;6.30;92.20
3360;DHT22;1693;49.602;11.046;2023-03-01T10:29:14;6.60;93.70
3360;DHT22;1693;49.602;11.046;2023-03-01T10:31:44;6.70;92.20
3360;DHT22;1693;49.602;11.046;2023-03-01T10:34:14;7.10;91.60
3360;DHT22;1693;49.602;11.046;2023-03-01T10:36:48;7.90;90.50
3360;DHT22;1693;49.602;11.046;2023-03-01T10:39:21;9.40;85.80
3360;DHT22;1693;49.602;11.046;2023-03-01T10:41:56;9.80;83.70
3360;DHT22;1693;49.602;11.046;2023-03-01T10:44:42;10.10;78.90
3360;DHT22;1693;49.602;11.046;2023-03-01T10:47:19;9.70;76.50
3360;DHT22;1693;49.602;11.046;2023-03-01T10:49:56;9.40;75.90
3360;DHT22;1693;49.602;11.046;2023-03-01T10:52:26;10.00;76.00
3360;DHT22;1693;49.602;11.046;2023-03-01T10:54:56;10.90;73.80
3360;DHT22;1693;49.602;11.046;2023-03-01T10:57:38;12.20;72.50
3360;DHT22;1693;49.602;11.046;2023-03-01T11:00:25;12.10;65.30
3360;DHT22;1693;49.602;11.046;2023-03-01T11:03:13;11.80;66.90
3360;DHT22;1693;49.602;11.046;2023-03-01T11:05:55;11.20;64.90
3360;DHT22;1693;49.602;11.046;2023-03-01T11:08:33;11.20;64.30
3360;DHT22;1693;49.602;11.046;2023-03-01T11:11:21;10.20;63.90
3360;DHT22;1693;49.602;11.046;2023-03-01T11:13:54;10.80;66.70
3360;DHT22;1693;49.602;11.046;2023-03-01T11:16:28;11.40;65.20
3360;DHT22;1693;49.602;11.046;2023-03-01T11:19:01;12.60;65.80
3360;DHT22;1693;49.602;11.046;2023-03-01T11:21:32;13.70;62.70
3360;DHT22;1693;49.602;11.046;2023-03-01T11:24:01;14.40;61.60
3360;DHT22;1693;49.602;11.046;2023-03-01T11:26:35;14.30;58.20
3360;DHT22;1693;49.602;11.046;2023-03-01T11:29:12;13.40;58.10
3360;DHT22;1693;49.602;11.046;2023-03-01T11:31:42;13.20;58.20
3360;DHT22;1693;49.602;11.046;2023-03-01T11:34:14;13.40;58.60
3360;DHT22;1693;49.602;11.046;2023-03-01T11:36:49;14.00;57.50
3360;DHT22;1693;49.602;11.046;2023-03-01T11:39:32;13.60;56.50
3360;DHT22;1693;49.602;11.046;2023-03-01T11:42:11;13.30;58.00
3360;DHT22;1693;49.602;11.046;2023-03-01T11:44:46;13.00;58.20
3360;DHT22;1693;49.602;11.046;2023-03-01T11:47:39;12.20;56.30
3360;DHT22;1693;49.602;11.046;2023-03-01T11:50:20;12.70;57.70
3360;DHT22;1693;49.602;11.046;2023-03-01T11:53:01;13.10;57.90
3360;DHT22;1693;49.602;11.046;2023-03-01T11:55:51;13.50;57.00
3360;DHT22;1693;49.602;11.046;2023-03-01T11:58:46;13.50;56.30
3360;DHT22;1693;49.602;11.046;2023-03-01T12:01:26;13.30;56.30
3360;DHT22;1693;49.602;11.046;2023-03-01T12:09:36;13.90;56.20
3360;DHT22;1693;49.602;11.046;2023-03-01T12:12:29;14.30;56.70
3360;DHT22;1693;49.602;11.046;2023-03-01T12:15:27;15.20;56.50
3360;DHT22;1693;49.602;11.046;2023-03-01T12:18:26;14.50;54.90
3360;DHT22;1693;49.602;11.046;2023-03-01T12:21:03;14.40;55.50
3360;DHT22;1693;49.602;11.046;2023-03-01T12:23:54;15.40;54.60
3360;DHT22;1693;49.602;11.046;2023-03-01T12:26:29;15.50;54.80
3360;DHT22;1693;49.602;11.046;2023-03-01T12:29:21;15.00;53.90
3360;DHT22;1693;49.602;11.046;2023-03-01T12:32:09;15.20;54.50
3360;DHT22;1693;49.602;11.046;2023-03-01T12:40:37;14.60;53.10
3360;DHT22;1693;49.602;11.046;2023-03-01T12:43:15;14.10;54.70
3360;DHT22;1693;49.602;11.046;2023-03-01T12:45:54;14.60;54.40
3360;DHT22;1693;49.602;11.046;2023-03-01T12:48:34;15.10;54.50
3360;DHT22;1693;49.602;11.046;2023-03-01T12:51:07;15.30;54.10
3360;DHT22;1693;49.602;11.046;2023-03-01T12:53:39;15.60;53.70
3360;DHT22;1693;49.602;11.046;2023-03-01T12:56:09;15.80;53.00
3360;DHT22;1693;49.602;11.046;2023-03-01T12:58:42;15.00;52.80
3360;DHT22;1693;49.602;11.046;2023-03-01T13:01:19;15.20;52.90
3360;DHT22;1693;49.602;11.046;2023-03-01T13:06:58;16.10;53.90
3360;DHT22;1693;49.602;11.046;2023-03-01T13:09:31;16.10;52.90
3360;DHT22;1693;49.602;11.046;2023-03-01T13:12:03;15.30;51.70
3360;DHT22;1693;49.602;11.046;2023-03-01T13:14:46;15.50;53.00
3360;DHT22;1693;49.602;11.046;2023-03-01T13:17:43;15.70;53.80
3360;DHT22;1693;49.602;11.046;2023-03-01T13:20:17;15.00;53.20
3360;DHT22;1693;49.602;11.046;2023-03-01T13:22:45;15.70;53.20
3360;DHT22;1693;49.602;11.046;2023-03-01T13:25:16;14.70;52.50
3360;DHT22;1693;49.602;11.046;2023-03-01T13:27:46;15.10;54.60
3360;DHT22;1693;49.602;11.046;2023-03-01T13:30:38;15.00;53.20
3360;DHT22;1693;49.602;11.046;2023-03-01T13:33:43;14.90;53.80
3360;DHT22;1693;49.602;11.046;2023-03-01T13:36:11;15.60;53.20
3360;DHT22;1693;49.602;11.046;2023-03-01T13:38:46;14.90;52.80
3360;DHT22;1693;49.602;11.046;2023-03-01T13:41:14;14.90;53.70
3360;DHT22;1693;49.602;11.046;2023-03-01T13:43:44;15.70;54.30
3360;DHT22;1693;49.602;11.046;2023-03-01T13:46:17;14.80;52.70
3360;DHT22;1693;49.602;11.046;2023-03-01T13:48:49;15.50;53.70
3360;DHT22;1693;49.602;11.046;2023-03-01T13:51:23;15.30;53.40
3360;DHT22;1693;49.602;11.046;2023-03-01T13:53:53;15.70;53.00
3360;DHT22;1693;49.602;11.046;2023-03-01T13:56:24;16.10;53.30
3360;DHT22;1693;49.602;11.046;2023-03-01T13:58:57;16.20;53.50
3360;DHT22;1693;49.602;11.046;2023-03-01T14:01:29;15.40;53.60
3360;DHT22;1693;49.602;11.046;2023-03-01T14:03:56;15.70;53.60
3360;DHT22;1693;49.602;11.046;2023-03-01T14:06:25;15.70;54.00
3360;DHT22;1693;49.602;11.046;2023-03-01T14:09:03;15.80;53.30
3360;DHT22;1693;49.602;11.046;2023-03-01T14:11:51;15.70;53.00
3360;DHT22;1693;49.602;11.046;2023-03-01T14:14:39;16.40;54.10
3360;DHT22;1693;49.602;11.046;2023-03-01T14:17:24;15.00;53.30
3360;DHT22;1693;49.602;11.046;2023-03-01T14:19:56;14.90;53.90
3360;DHT22;1693;49.602;11.046;2023-03-01T14:22:24;15.90;55.30
3360;DHT22;1693;49.602;11.046;2023-03-01T14:24:55;15.60;53.70
3360;DHT22;1693;49.602;11.046;2023-03-01T14:27:25;15.40;54.00
3360;DHT22;1693;49.602;11.046;2023-03-01T14:29:59;15.20;53.40
3360;DHT22;1693;49.602;11.046;2023-03-01T14:32:27;15.40;54.30
3360;DHT22;1693;49.602;11.046;2023-03-01T14:34:56;16.10;54.90
3360;DHT22;1693;49.602;11.046;2023-03-01T14:37:26;16.40;54.90
3360;DHT22;1693;49.602;11.046;2023-03-01T14:39:54;15.80;53.10
3360;DHT22;1693;49.602;11.046;2023-03-01T14:42:26;15.80;53.90
3360;DHT22;1693;49.602;11.046;2023-03-01T14:44:56;15.50;53.30
3360;DHT22;1693;49.602;11.046;2023-03-01T14:47:28;15.60;53.80
3360;DHT22;1693;49.602;11.046;2023-03-01T14:49:59;16.40;54.30
3360;DHT22;1693;49.602;11.046;2023-03-01T14:52:33;16.50;54.00
3360;DHT22;1693;49.602;11.046;2023-03-01T14:55:03;16.90;54.30
3360;DHT22;1693;49.602;11.046;2023-03-01T14:57:31;16.40;52.60
3360;DHT22;1693;49.602;11.046;2023-03-01T15:00:00;15.70;53.30
3360;DHT22;1693;49.602;11.046;2023-03-01T15:02:31;16.00;52.90
3360;DHT22;1693;49.602;11.046;2023-03-01T15:05:01;16.50;53.30
3360;DHT22;1693;49.602;11.046;2023-03-01T15:07:31;16.00;52.90
3360;DHT22;1693;49.602;11.046;2023-03-01T15:10:02;16.40;53.30
3360;DHT22;1693;49.602;11.046;2023-03-01T15:12:39;15.70;53.40
3360;DHT22;1693;49.602;11.046;2023-03-01T15:15:34;15.80;53.70
3360;DHT22;1693;49.602;11.046;2023-03-01T15:18:03;16.50;53.90
3360;DHT22;1693;49.602;11.046;2023-03-01T15:20:33;15.80;53.70
3360;DHT22;1693;49.602;11.046;2023-03-01T15:23:02;15.70;53.70
3360;DHT22;1693;49.602;11.046;2023-03-01T15:25:30;15.30;53.30
3360;DHT22;1693;49.602;11.046;2023-03-01T15:27:59;15.10;53.50
3360;DHT22;1693;49.602;11.046;2023-03-01T15:30:30;15.70;54.30
3360;DHT22;1693;49.602;11.046;2023-03-01T15:33:30;16.10;53.90
3360;DHT22;1693;49.602;11.046;2023-03-01T15:36:35;16.60;53.50
3360;DHT22;1693;49.602;11.046;2023-03-01T15:39:03;17.00;53.50
3360;DHT22;1693;49.602;11.046;2023-03-01T15:41:37;16.60;52.30
3360;DHT22;1693;49.602;11.046;2023-03-01T15:44:15;15.90;52.60
3360;DHT22;1693;49.602;11.046;2023-03-01T15:46:46;14.90;53.30
3360;DHT22;1693;49.602;11.046;2023-03-01T15:49:27;14.40;53.80
3360;DHT22;1693;49.602;11.046;2023-03-01T15:51:57;13.90;54.50
3360;DHT22;1693;49.602;11.046;2023-03-01T15:54:25;13.60;55.20
3360;DHT22;1693;49.602;11.046;2023-03-01T15:56:53;12.50;56.10
3360;DHT22;1693;49.602;11.046;2023-03-01T15:59:20;11.30;57.00
3360;DHT22;1693;49.602;11.046;2023-03-01T16:01:48;10.50;58.40
3360;DHT22;1693;49.602;11.046;2023-03-01T16:04:18;10.00;60.30
3360;DHT22;1693;49.602;11.046;2023-03-01T16:06:50;9.60;62.50
3360;DHT22;1693;49.602;11.046;2023-03-01T16:09:22;9.40;64.40
3360;DHT22;1693;49.602;11.046;2023-03-01T16:11:52;8.70;66.40
3360;DHT22;1693;49.602;11.046;2023-03-01T16:14:20;8.50;67.50
3360;DHT22;1693;49.602;11.046;2023-03-01T16:16:48;8.40;68.60
3360;DHT22;1693;49.602;11.046;2023-03-01T16:19:15;8.10;68.60
3360;DHT22;1693;49.602;11.046;2023-03-01T16:21:44;7.90;70.50
3360;DHT22;1693;49.602;11.046;2023-03-01T16:24:14;7.80;71.40
3360;DHT22;1693;49.602;11.046;2023-03-01T16:26:57;7.60;71.50
3360;DHT22;1693;49.602;11.046;2023-03-01T16:33:03;7.30;74.20
3360;DHT22;1693;49.602;11.046;2023-03-01T16:35:33;7.30;76.10
3360;DHT22;1693;49.602;11.046;2023-03-01T16:38:07;7.10;76.70